Time;durP1;ratioP1;P1;durP2;ratioP2;P2;SDS_P1;SDS_P2;PMS_P1;PMS_P2;Temp;Humidity;BMP_temperature;BMP_pressure;BME280_temperature;BME280_humidity;BME280_pressure;Samples;Min_cycle;Max_cycle;Signal;HPM_P1;HPM_P2
2021/10/25 00:00:55;;;;;;;18.63;16.60;;;5.40;99.90;;;;;;6060654;23;20102;-44
2021/10/25 00:03:21;;;;;;;18.42;16.20;;;5.30;99.90;;;;;;6060916;23;20027;-43
2021/10/25 00:05:47;;;;;;;17.10;15.38;;;5.30;99.90;;;;;;6061308;23;20019;-45
2021/10/25 00:08:13;;;;;;;18.30;15.45;;;5.30;99.90;;;;;;6060433;23;20023;-45
2021/10/25 00:10:43;;;;;;;16.92;14.95;;;5.20;99.90;;;;;;6060427;23;20045;-44
2021/10/25 00:13:09;;;;;;;19.67;16.15;;;5.20;99.90;;;;;;6060417;23;20082;-44
2021/10/25 00:15:36;;;;;;;20.77;16.13;;;5.20;99.90;;;;;;6060642;23;20495;-44
2021/10/25 00:18:02;;;;;;;19.08;16.25;;;5.20;99.90;;;;;;6059700;23;20464;-43
2021/10/25 00:20:29;;;;;;;18.60;16.23;;;5.10;99.90;;;;;;6060260;23;20030;-45
2021/10/25 00:22:55;;;;;;;21.90;15.68;;;5.10;99.90;;;;;;6060454;23;20038;-43
2021/10/25 00:25:21;;;;;;;17.98;16.05;;;5.10;99.90;;;;;;6034694;23;20030;-43
2021/10/25 00:27:47;;;;;;;20.90;18.38;;;5.10;99.90;;;;;;6059425;23;20632;-43
2021/10/25 00:30:14;;;;;;;22.15;16.80;;;5.10;99.90;;;;;;6060480;23;20781;-45
2021/10/25 00:32:40;;;;;;;19.90;17.52;;;5.10;99.90;;;;;;6060074;23;20564;-45
2021/10/25 00:35:07;;;;;;;23.35;18.38;;;5.10;99.90;;;;;;6059859;23;20034;-44
2021/10/25 00:37:36;;;;;;;21.73;18.73;;;5.10;99.90;;;;;;6059450;23;20019;-45
2021/10/25 00:40:04;;;;;;;24.33;18.15;;;5.10;99.90;;;;;;6060549;23;20026;-46
2021/10/25 00:42:30;;;;;;;21.73;17.98;;;5.10;99.90;;;;;;6061112;23;20035;-44
2021/10/25 00:44:56;;;;;;;21.00;17.83;;;5.10;99.90;;;;;;6061037;23;20069;-43
2021/10/25 00:47:22;;;;;;;24.33;19.02;;;5.10;99.90;;;;;;6060558;23;20023;-43
2021/10/25 00:49:48;;;;;;;23.58;18.60;;;5.10;99.90;;;;;;6061228;23;20408;-43
2021/10/25 00:52:15;;;;;;;20.75;17.13;;;5.00;99.90;;;;;;6061161;23;20058;-44
2021/10/25 00:54:42;;;;;;;19.50;17.40;;;5.00;99.90;;;;;;6061460;23;20075;-44
2021/10/25 00:57:08;;;;;;;24.15;19.17;;;5.00;99.90;;;;;;6059766;23;20038;-44
2021/10/25 00:59:34;;;;;;;23.30;20.80;;;5.00;99.90;;;;;;6037125;23;20074;-48
2021/10/25 01:02:00;;;;;;;22.42;18.80;;;5.00;99.90;;;;;;6087399;23;20112;-48
2021/10/25 01:04:27;;;;;;;24.48;18.83;;;5.00;99.90;;;;;;6090177;23;20026;-47
2021/10/25 01:06:54;;;;;;;22.83;18.48;;;5.00;99.90;;;;;;6090991;23;20410;-48
2021/10/25 01:09:21;;;;;;;22.15;17.42;;;4.90;99.90;;;;;;6087523;23;20117;-47
2021/10/25 01:11:49;;;;;;;23.55;20.25;;;4.90;99.90;;;;;;6089878;23;20032;-45
2021/10/25 01:14:17;;;;;;;21.77;17.50;;;4.90;99.90;;;;;;6065114;23;20022;-45
2021/10/25 01:16:44;;;;;;;22.00;18.88;;;4.90;99.90;;;;;;6090259;23;20444;-45
2021/10/25 01:19:13;;;;;;;24.40;20.48;;;4.90;99.90;;;;;;6090226;23;20104;-43
2021/10/25 01:21:39;;;;;;;22.73;20.33;;;4.90;99.90;;;;;;6090243;23;20030;-44
2021/10/25 01:24:05;;;;;;;22.02;19.67;;;4.90;99.90;;;;;;6091890;23;20360;-42
2021/10/25 01:26:32;;;;;;;24.13;20.63;;;4.90;99.90;;;;;;6089380;23;20037;-43
2021/10/25 01:28:58;;;;;;;25.23;19.33;;;5.00;99.90;;;;;;6090910;23;20023;-44
2021/10/25 01:31:24;;;;;;;22.10;19.00;;;5.00;99.90;;;;;;6066174;23;20113;-44
2021/10/25 01:33:51;;;;;;;24.20;20.15;;;5.00;99.90;;;;;;6089465;23;20783;-43
2021/10/25 01:36:21;;;;;;;25.58;20.50;;;5.00;99.90;;;;;;6089956;23;20041;-44
2021/10/25 01:38:48;;;;;;;25.33;21.10;;;5.10;99.90;;;;;;6088525;23;20027;-44
2021/10/25 01:41:14;;;;;;;27.30;21.95;;;5.10;99.90;;;;;;6089344;23;20033;-43
2021/10/25 01:43:42;;;;;;;23.52;20.25;;;5.20;99.90;;;;;;6091718;23;20030;-42
2021/10/25 01:46:09;;;;;;;25.40;21.52;;;5.20;99.90;;;;;;6089411;23;20038;-44
2021/10/25 01:48:35;;;;;;;23.52;20.33;;;5.30;99.90;;;;;;6088935;23;20447;-43
2021/10/25 01:51:03;;;;;;;22.23;18.98;;;5.20;99.90;;;;;;6089000;23;20025;-43
2021/10/25 01:53:33;;;;;;;24.73;19.77;;;5.20;99.90;;;;;;6089409;23;20077;-44
2021/10/25 01:56:00;;;;;;;25.60;18.65;;;5.20;99.90;;;;;;6089589;23;20026;-43
2021/10/25 01:58:29;;;;;;;22.05;19.45;;;5.20;99.90;;;;;;6088277;23;20096;-42
2021/10/25 02:01:01;;;;;;;29.98;22.88;;;5.20;99.90;;;;;;6089112;23;20789;-43
2021/10/25 02:03:28;;;;;;;23.60;20.08;;;5.20;99.90;;;;;;6089708;23;20491;-43
2021/10/25 02:05:59;;;;;;;26.40;19.90;;;5.20;99.90;;;;;;6089396;23;20032;-44
2021/10/25 02:08:26;;;;;;;24.38;19.20;;;5.20;99.90;;;;;;6088744;23;20025;-43
2021/10/25 02:10:59;;;;;;;26.25;21.42;;;5.20;99.90;;;;;;6089720;23;20030;-43
2021/10/25 02:13:29;;;;;;;25.60;20.45;;;5.20;99.90;;;;;;6089300;23;20041;-44
2021/10/25 02:16:01;;;;;;;25.55;20.85;;;5.20;99.90;;;;;;6089585;23;20093;-43
2021/10/25 02:18:27;;;;;;;20.70;17.42;;;5.20;99.90;;;;;;6088291;23;20034;-44
2021/10/25 02:20:56;;;;;;;23.75;19.65;;;5.10;99.90;;;;;;6089250;23;20035;-43
2021/10/25 02:23:23;;;;;;;27.27;20.30;;;5.10;99.90;;;;;;6089725;23;20034;-43
2021/10/25 02:25:53;;;;;;;26.63;19.58;;;5.00;99.90;;;;;;6088912;23;20113;-45
2021/10/25 02:28:21;;;;;;;28.00;20.42;;;5.00;99.90;;;;;;6088919;23;20019;-43
2021/10/25 02:30:52;;;;;;;21.50;18.48;;;5.10;99.90;;;;;;6088586;23;20030;-44
2021/10/25 02:33:19;;;;;;;26.73;21.90;;;5.00;99.90;;;;;;6088828;23;20158;-44
2021/10/25 02:35:46;;;;;;;25.33;20.17;;;5.00;99.90;;;;;;6089744;23;20198;-46
2021/10/25 02:38:13;;;;;;;20.17;16.40;;;5.00;99.90;;;;;;6089090;23;20097;-45
2021/10/25 02:40:45;;;;;;;24.60;19.63;;;5.00;99.90;;;;;;6089119;23;20034;-45
2021/10/25 02:43:11;;;;;;;22.92;19.13;;;4.90;99.90;;;;;;6088527;23;20033;-44
2021/10/25 02:45:37;;;;;;;24.15;19.38;;;4.90;99.90;;;;;;6090840;23;20400;-45
2021/10/25 02:48:05;;;;;;;28.42;20.52;;;4.90;99.90;;;;;;6091224;23;20126;-45
2021/10/25 02:50:32;;;;;;;26.10;20.98;;;4.90;99.90;;;;;;6088316;23;20026;-44
2021/10/25 02:52:58;;;;;;;25.13;20.42;;;4.90;99.90;;;;;;6088399;23;20464;-45
2021/10/25 02:55:24;;;;;;;22.52;19.63;;;4.90;99.90;;;;;;6089106;23;20101;-44
2021/10/25 02:57:53;;;;;;;25.95;20.45;;;4.90;99.90;;;;;;6088809;23;20516;-45
2021/10/25 03:00:19;;;;;;;26.20;20.80;;;4.90;99.90;;;;;;6085547;23;20060;-46
2021/10/25 03:02:46;;;;;;;23.17;18.83;;;4.90;99.90;;;;;;6059560;23;20023;-46
2021/10/25 03:05:14;;;;;;;22.25;18.48;;;4.90;99.90;;;;;;6035440;23;20670;-45
2021/10/25 03:07:41;;;;;;;29.42;22.52;;;4.90;99.90;;;;;;6011910;23;20660;-44
2021/10/25 03:10:09;;;;;;;26.27;21.52;;;4.90;99.90;;;;;;6058947;23;20037;-45
2021/10/25 03:12:36;;;;;;;28.35;23.13;;;5.00;99.90;;;;;;6035950;23;20042;-44
2021/10/25 03:15:08;;;;;;;25.02;20.88;;;5.00;99.90;;;;;;6035071;23;20056;-44
2021/10/25 03:17:35;;;;;;;25.98;21.02;;;5.00;99.90;;;;;;6035703;23;20027;-45
2021/10/25 03:20:28;;;;;;;29.05;22.35;;;4.90;99.90;;;;;;6054575;23;20444;-44
2021/10/25 03:22:54;;;;;;;27.10;22.65;;;5.00;99.90;;;;;;6060328;23;20027;-44
2021/10/25 03:25:22;;;;;;;28.75;22.42;;;5.00;99.90;;;;;;6034562;23;20714;-44
2021/10/25 03:27:49;;;;;;;25.38;20.90;;;5.00;99.90;;;;;;6036136;23;20349;-44
2021/10/25 03:30:15;;;;;;;26.27;22.10;;;5.00;99.90;;;;;;6060267;23;20089;-44
2021/10/25 03:32:46;;;;;;;31.27;22.33;;;5.00;99.90;;;;;;6035985;23;20078;-44
2021/10/25 03:35:32;;;;;;;24.45;19.75;;;5.00;99.90;;;;;;6060254;23;20366;-44
2021/10/25 03:38:00;;;;;;;23.83;20.33;;;4.90;99.90;;;;;;6035579;23;20027;-44
2021/10/25 03:40:29;;;;;;;25.30;20.27;;;4.90;99.90;;;;;;6034440;23;20464;-46
2021/10/25 03:42:56;;;;;;;26.80;19.90;;;4.90;99.90;;;;;;6035351;23;20058;-44
2021/10/25 03:50:36;;;;;;;24.92;20.65;;;4.90;99.90;;;;;;6034762;23;20058;-45
2021/10/25 04:01:22;;;;;;;26.40;22.92;;;4.80;99.90;;;;;;6043742;23;20030;-43
2021/10/25 04:28:41;;;;;;;27.20;23.02;;;5.10;99.90;;;;;;6088688;23;20108;-43
2021/10/25 04:31:08;;;;;;;29.73;23.83;;;5.20;99.90;;;;;;6088274;23;20073;-44
2021/10/25 04:33:52;;;;;;;27.98;23.30;;;5.30;99.90;;;;;;6088813;23;20506;-44
2021/10/25 04:36:39;;;;;;;31.23;24.05;;;5.50;99.90;;;;;;5972670;24;20054;-46
2021/10/25 04:39:17;;;;;;;30.67;22.85;;;5.60;99.90;;;;;;5972085;24;20487;-45
2021/10/25 04:41:44;;;;;;;26.52;21.67;;;5.70;99.90;;;;;;5971356;23;20036;-45
2021/10/25 04:44:10;;;;;;;29.02;22.88;;;5.90;99.90;;;;;;5972364;24;20081;-45
2021/10/25 04:46:36;;;;;;;24.90;21.13;;;6.00;99.90;;;;;;5972424;24;20051;-45
2021/10/25 04:49:03;;;;;;;29.42;21.77;;;6.00;99.90;;;;;;5949132;24;20084;-47
2021/10/25 04:51:43;;;;;;;23.40;20.90;;;6.20;99.90;;;;;;5950257;24;20110;-42
2021/10/25 04:54:16;;;;;;;23.90;21.20;;;6.20;99.90;;;;;;5950682;24;20107;-42
2021/10/25 04:56:51;;;;;;;23.42;20.92;;;6.20;99.90;;;;;;5951411;24;20031;-44
2021/10/25 04:59:17;;;;;;;22.23;19.92;;;6.30;99.90;;;;;;5975282;24;20031;-43
2021/10/25 05:01:43;;;;;;;23.70;20.30;;;6.40;99.90;;;;;;5973047;24;20501;-43
2021/10/25 05:04:10;;;;;;;20.50;18.08;;;6.50;99.90;;;;;;5950583;24;20055;-43
2021/10/25 05:06:36;;;;;;;24.65;19.27;;;6.50;99.90;;;;;;5951403;24;20035;-43
2021/10/25 05:09:02;;;;;;;20.80;18.60;;;6.50;99.90;;;;;;5974145;24;20047;-43
2021/10/25 05:11:28;;;;;;;21.50;19.23;;;6.60;99.90;;;;;;5974066;24;20529;-45
2021/10/25 05:13:54;;;;;;;23.42;18.92;;;6.60;99.90;;;;;;6026018;23;20121;-43
2021/10/25 05:16:20;;;;;;;21.80;18.67;;;6.60;99.90;;;;;;6091498;23;20066;-47
2021/10/25 05:19:01;;;;;;;23.13;18.63;;;6.70;99.90;;;;;;6089892;23;20045;-43
2021/10/25 05:21:27;;;;;;;21.23;18.45;;;6.70;99.90;;;;;;6089244;23;20028;-43
2021/10/25 05:23:53;;;;;;;20.90;17.58;;;6.70;99.90;;;;;;6091220;23;20034;-44
2021/10/25 05:26:20;;;;;;;20.33;18.15;;;6.80;99.90;;;;;;6089097;23;20073;-42
2021/10/25 05:28:47;;;;;;;20.90;18.67;;;6.80;99.90;;;;;;6088454;23;20556;-44
2021/10/25 05:31:14;;;;;;;20.83;17.73;;;6.80;99.90;;;;;;6089478;23;20034;-42
2021/10/25 05:33:42;;;;;;;20.95;18.05;;;6.80;99.90;;;;;;6089967;23;20034;-43
2021/10/25 05:36:09;;;;;;;22.40;18.85;;;6.90;99.90;;;;;;6088916;23;20033;-56
2021/10/25 05:38:37;;;;;;;20.17;17.73;;;7.00;99.90;;;;;;6091430;23;20350;-47
2021/10/25 05:41:05;;;;;;;21.42;18.02;;;6.90;99.90;;;;;;6087408;23;20089;-47
2021/10/25 05:43:32;;;;;;;20.08;18.02;;;7.00;99.90;;;;;;6088632;23;20113;-47
2021/10/25 05:45:58;;;;;;;20.98;18.38;;;7.00;99.90;;;;;;6090675;23;20464;-49
2021/10/25 05:48:25;;;;;;;23.83;16.92;;;7.00;99.90;;;;;;6089557;23;20041;-48
2021/10/25 05:50:51;;;;;;;22.17;18.02;;;7.00;99.90;;;;;;6090422;23;20029;-49
2021/10/25 05:53:18;;;;;;;19.55;16.52;;;7.00;99.90;;;;;;6089228;23;20030;-48
2021/10/25 05:55:46;;;;;;;19.25;17.17;;;7.10;99.90;;;;;;6088936;23;20113;-49
2021/10/25 05:58:22;;;;;;;20.75;18.00;;;7.10;99.90;;;;;;6088487;23;20364;-49
2021/10/25 06:00:56;;;;;;;20.38;17.63;;;7.10;99.90;;;;;;6082409;23;20077;-50
2021/10/25 06:04:10;;;;;;;19.38;16.65;;;7.10;99.90;;;;;;5945389;24;20390;-53
2021/10/25 06:06:43;;;;;;;19.65;17.50;;;7.10;99.90;;;;;;5945603;24;20025;-48
2021/10/25 06:09:10;;;;;;;20.15;17.73;;;7.20;99.90;;;;;;5946424;24;20457;-52
2021/10/25 06:11:38;;;;;;;17.77;15.88;;;7.20;99.90;;;;;;5944320;24;20066;-48
2021/10/25 06:14:07;;;;;;;20.45;17.45;;;7.20;99.90;;;;;;5944969;24;20067;-49
2021/10/25 06:16:41;;;;;;;19.65;16.90;;;7.10;99.90;;;;;;5945159;24;20032;-48
2021/10/25 06:19:10;;;;;;;17.90;16.08;;;7.20;99.90;;;;;;5945663;24;20039;-49
2021/10/25 06:21:38;;;;;;;19.08;15.50;;;7.10;99.90;;;;;;5921360;24;20032;-47
2021/10/25 06:24:05;;;;;;;19.90;17.80;;;7.20;99.90;;;;;;5945686;24;20355;-48
2021/10/25 06:26:53;;;;;;;18.90;16.80;;;7.20;99.90;;;;;;5946239;24;20047;-49
2021/10/25 06:29:22;;;;;;;19.88;16.27;;;7.20;99.90;;;;;;5946473;24;20132;-49
2021/10/25 06:31:50;;;;;;;18.85;16.92;;;7.20;99.90;;;;;;5945197;24;20069;-49
2021/10/25 06:34:22;;;;;;;20.35;16.75;;;7.20;99.90;;;;;;5946100;24;20029;-51
2021/10/25 06:37:07;;;;;;;21.85;17.63;;;7.30;99.90;;;;;;5962875;23;20027;-49
2021/10/25 06:39:52;;;;;;;20.10;16.63;;;7.30;99.90;;;;;;6061587;23;20175;-51
2021/10/25 06:42:24;;;;;;;19.55;16.92;;;7.40;99.90;;;;;;6060158;23;20033;-49
2021/10/25 06:45:04;;;;;;;19.75;16.83;;;7.40;99.90;;;;;;6058832;23;20026;-49
2021/10/25 06:47:36;;;;;;;22.35;16.58;;;7.50;99.90;;;;;;6034776;23;20130;-49
2021/10/25 06:50:05;;;;;;;21.45;16.85;;;7.50;99.90;;;;;;6060646;23;20033;-47
2021/10/25 06:52:37;;;;;;;;;;;7.60;99.90;;;;;;6060557;23;20023;-48
2021/10/25 06:55:06;;;;;;;18.42;15.95;;;7.60;99.90;;;;;;6059253;23;20244;-49
2021/10/25 06:57:34;;;;;;;18.35;16.42;;;7.60;99.90;;;;;;6036387;23;20034;-52
2021/10/25 07:00:08;;;;;;;19.55;17.13;;;7.60;99.90;;;;;;6012070;23;20030;-50
2021/10/25 07:02:39;;;;;;;20.70;16.58;;;7.70;99.90;;;;;;6059625;23;20143;-48
2021/10/25 07:05:11;;;;;;;17.90;15.77;;;7.80;99.90;;;;;;6063380;23;20022;-47
2021/10/25 07:07:37;;;;;;;19.77;15.77;;;7.80;99.90;;;;;;6087377;23;20022;-52
2021/10/25 07:10:09;;;;;;;18.70;16.73;;;7.80;99.90;;;;;;6089474;23;20022;-50
2021/10/25 07:12:41;;;;;;;22.58;17.55;;;7.90;99.90;;;;;;6088908;23;20034;-51
2021/10/25 07:15:09;;;;;;;20.55;15.23;;;8.00;99.90;;;;;;6088351;23;20030;-50
2021/10/25 07:22:59;;;;;;;17.52;15.55;;;8.10;99.90;;;;;;6087122;23;20351;-48
2021/10/25 08:11:03;;;;;;;17.83;13.13;;;9.10;99.90;;;;;;5999817;23;20028;-46
2021/10/25 08:13:40;;;;;;;17.30;14.13;;;9.10;99.90;;;;;;6000333;23;20496;-48
2021/10/25 08:21:19;;;;;;;16.23;14.35;;;9.10;99.90;;;;;;5976344;23;20031;-47
2021/10/25 08:23:46;;;;;;;21.30;15.07;;;9.20;99.90;;;;;;5999452;23;20031;-47
2021/10/25 08:26:31;;;;;;;17.17;13.82;;;9.20;99.90;;;;;;6000433;23;20032;-48
2021/10/25 08:29:03;;;;;;;18.52;15.35;;;9.20;99.90;;;;;;6001181;23;20034;-50
2021/10/25 08:31:33;;;;;;;18.58;14.15;;;9.20;99.90;;;;;;6000035;23;20070;-46
2021/10/25 08:39:52;;;;;;;19.52;15.63;;;9.30;99.90;;;;;;6004681;23;20032;-48
2021/10/25 08:42:34;;;;;;;20.48;16.15;;;9.30;99.90;;;;;;6028766;23;20039;-46
2021/10/25 08:45:10;;;;;;;18.33;14.40;;;9.40;99.90;;;;;;6003716;23;20038;-47
2021/10/25 08:47:43;;;;;;;19.25;16.10;;;9.40;99.90;;;;;;6004249;23;20042;-49
2021/10/25 08:50:15;;;;;;;20.00;15.98;;;9.50;99.90;;;;;;6029021;23;20038;-48
2021/10/25 08:52:45;;;;;;;20.40;16.65;;;9.60;99.90;;;;;;6005312;23;20034;-48
2021/10/25 08:55:17;;;;;;;19.65;15.38;;;9.60;99.90;;;;;;6026866;23;20102;-46
2021/10/25 08:57:43;;;;;;;19.35;14.95;;;9.60;99.90;;;;;;6027987;23;20461;-46
2021/10/25 09:00:18;;;;;;;19.90;16.13;;;9.60;99.90;;;;;;6028571;23;20043;-48
2021/10/25 09:03:05;;;;;;;20.25;16.48;;;9.70;99.90;;;;;;6028190;23;20038;-47
2021/10/25 09:05:33;;;;;;;19.27;16.20;;;9.70;99.90;;;;;;5980210;23;20038;-47
2021/10/25 09:08:07;;;;;;;21.08;16.13;;;9.70;99.90;;;;;;6028244;23;20027;-46
2021/10/25 09:10:41;;;;;;;19.58;14.82;;;9.70;99.90;;;;;;6005256;23;20528;-49
2021/10/25 09:13:17;;;;;;;21.75;15.43;;;9.80;99.90;;;;;;6039701;23;20034;-47
2021/10/25 09:15:51;;;;;;;18.75;14.13;;;9.80;99.90;;;;;;6040040;23;20527;-49
2021/10/25 09:19:18;;;;;;;18.58;14.30;;;9.80;99.90;;;;;;6083834;23;20053;-50
2021/10/25 09:22:02;;;;;;;18.48;14.75;;;9.90;99.90;;;;;;6089470;23;20069;-50
2021/10/25 09:24:30;;;;;;;19.25;13.68;;;9.80;99.90;;;;;;6086584;23;20400;-49
2021/10/25 09:27:01;;;;;;;17.05;13.15;;;9.90;99.90;;;;;;6089954;23;20027;-46
2021/10/25 09:29:31;;;;;;;17.90;14.45;;;9.90;99.90;;;;;;6063976;23;20030;-48
2021/10/25 09:32:07;;;;;;;16.42;13.07;;;9.90;99.90;;;;;;6087962;23;20033;-47
2021/10/25 09:34:50;;;;;;;18.77;12.23;;;10.00;99.90;;;;;;6039864;23;20022;-50
2021/10/25 09:37:50;;;;;;;17.60;13.50;;;10.00;99.90;;;;;;6030268;23;20050;-48
2021/10/25 09:40:24;;;;;;;16.02;13.45;;;10.00;99.90;;;;;;6005330;23;20034;-48
2021/10/25 09:50:58;;;;;;;17.25;13.50;;;10.00;99.90;;;;;;6007338;23;20035;-48
2021/10/25 09:53:35;;;;;;;20.13;14.00;;;10.00;99.90;;;;;;6030366;23;20031;-49
2021/10/25 09:56:08;;;;;;;17.13;12.98;;;10.00;99.90;;;;;;6029485;23;20081;-48
2021/10/25 09:59:07;;;;;;;17.27;14.15;;;10.00;99.90;;;;;;6029270;23;20083;-51
2021/10/25 10:01:35;;;;;;;19.42;14.77;;;10.00;99.90;;;;;;6029428;23;20031;-47
2021/10/25 10:04:03;;;;;;;20.65;14.32;;;10.10;99.90;;;;;;6028843;23;20521;-52
2021/10/25 10:06:50;;;;;;;22.58;14.65;;;10.10;99.90;;;;;;6024446;23;20038;-50
2021/10/25 10:09:18;;;;;;;17.05;15.15;;;10.10;99.90;;;;;;6030003;23;20051;-52
2021/10/25 10:11:45;;;;;;;20.38;14.60;;;10.10;99.90;;;;;;6029403;23;20042;-50
2021/10/25 10:14:12;;;;;;;20.35;15.73;;;10.10;99.90;;;;;;6050194;23;20030;-48
2021/10/25 10:16:46;;;;;;;20.88;16.65;;;10.10;99.90;;;;;;6065740;23;20062;-52
2021/10/25 10:19:14;;;;;;;18.55;15.20;;;10.10;99.90;;;;;;6088894;23;20393;-51
2021/10/25 10:22:03;;;;;;;19.30;16.83;;;10.10;99.90;;;;;;6088860;23;20344;-53
2021/10/25 10:24:40;;;;;;;19.40;16.40;;;10.10;99.90;;;;;;6089850;23;20113;-48
2021/10/25 10:27:07;;;;;;;21.08;17.05;;;10.10;99.90;;;;;;6088593;23;20109;-50
2021/10/25 10:29:39;;;;;;;21.40;18.42;;;10.10;99.90;;;;;;6087987;23;20460;-48
2021/10/25 10:32:15;;;;;;;21.38;18.52;;;10.10;99.90;;;;;;6061807;23;20541;-49
2021/10/25 10:35:09;;;;;;;19.67;17.40;;;10.10;99.90;;;;;;6088285;23;20039;-53
2021/10/25 10:38:01;;;;;;;27.35;18.77;;;10.20;99.90;;;;;;6079740;23;20061;-53
2021/10/25 10:40:43;;;;;;;24.80;19.00;;;10.20;99.90;;;;;;6088108;23;20026;-56
2021/10/25 10:43:24;;;;;;;22.23;16.77;;;10.20;99.90;;;;;;6089974;23;20030;-54
2021/10/25 10:46:14;;;;;;;23.90;20.27;;;10.20;99.90;;;;;;6087306;23;20036;-56
2021/10/25 10:48:44;;;;;;;23.40;19.00;;;10.20;99.90;;;;;;6089935;23;20037;-57
2021/10/25 10:51:12;;;;;;;24.88;19.25;;;10.30;99.90;;;;;;6088010;23;20480;-58
2021/10/25 10:53:57;;;;;;;23.55;19.65;;;10.20;99.90;;;;;;6089986;23;20030;-54
2021/10/25 10:56:28;;;;;;;23.10;19.88;;;10.20;99.90;;;;;;6089606;23;20032;-57
2021/10/25 11:01:29;;;;;;;27.90;24.30;;;10.20;99.90;;;;;;6079967;23;20039;-54
2021/10/25 11:03:57;;;;;;;30.05;22.05;;;10.20;99.90;;;;;;6061033;23;20034;-55
2021/10/25 11:06:30;;;;;;;29.85;22.52;;;10.20;99.90;;;;;;6060642;23;20034;-54
2021/10/25 11:08:57;;;;;;;29.20;23.08;;;10.20;99.90;;;;;;6061295;23;20026;-56
2021/10/25 11:11:24;;;;;;;27.60;22.67;;;10.30;99.90;;;;;;6061077;23;20030;-55
2021/10/25 11:14:05;;;;;;;31.48;23.02;;;10.20;99.90;;;;;;6062076;23;20026;-55
2021/10/25 11:19:07;;;;;;;32.78;25.80;;;10.30;99.90;;;;;;6060528;23;20030;-55
2021/10/25 11:21:36;;;;;;;31.02;24.58;;;10.40;99.90;;;;;;6061213;23;20026;-53
2021/10/25 11:24:11;;;;;;;28.77;23.45;;;10.40;99.90;;;;;;6060479;23;20025;-56
2021/10/25 11:26:41;;;;;;;26.73;23.05;;;10.40;99.90;;;;;;6035313;23;20027;-55
2021/10/25 11:29:09;;;;;;;26.17;22.58;;;10.40;99.90;;;;;;6061270;23;20023;-55
2021/10/25 11:31:43;;;;;;;28.27;22.95;;;10.50;99.90;;;;;;6060407;23;20027;-50
2021/10/25 11:34:20;;;;;;;26.52;21.38;;;10.50;99.90;;;;;;6060937;23;20200;-54
2021/10/25 11:37:09;;;;;;;25.45;21.08;;;10.60;99.90;;;;;;6058922;23;20381;-53
2021/10/25 11:39:57;;;;;;;27.95;21.10;;;10.50;99.90;;;;;;6061992;23;20359;-50
2021/10/25 11:42:29;;;;;;;26.77;22.75;;;10.60;99.90;;;;;;6061647;23;20035;-52
2021/10/25 11:45:01;;;;;;;23.42;19.08;;;10.70;99.90;;;;;;6062252;23;20105;-53
2021/10/25 11:47:44;;;;;;;22.27;19.98;;;10.70;99.90;;;;;;6060896;23;20477;-50
2021/10/25 11:50:14;;;;;;;27.38;21.17;;;10.70;99.90;;;;;;6062211;23;20356;-49
2021/10/25 11:52:50;;;;;;;22.52;18.67;;;10.70;99.90;;;;;;6060830;23;20035;-51
2021/10/25 11:55:18;;;;;;;22.45;18.58;;;10.80;99.90;;;;;;6060412;23;20034;-51
2021/10/25 11:57:51;;;;;;;21.13;18.15;;;10.80;99.90;;;;;;6059097;23;20027;-51
2021/10/25 12:00:21;;;;;;;22.35;17.40;;;10.80;99.90;;;;;;6060563;23;20062;-53
2021/10/25 12:02:54;;;;;;;19.85;17.42;;;10.80;99.90;;;;;;6081567;23;20037;-52
2021/10/25 12:05:25;;;;;;;20.30;17.58;;;10.80;99.90;;;;;;6064390;23;20035;-51
2021/10/25 12:07:54;;;;;;;25.83;18.83;;;10.80;99.90;;;;;;6089007;23;20022;-50
2021/10/25 12:10:22;;;;;;;19.98;17.77;;;10.70;99.90;;;;;;6089313;23;20030;-53
2021/10/25 12:12:54;;;;;;;22.50;17.85;;;10.70;99.90;;;;;;6089807;23;20032;-50
2021/10/25 12:15:24;;;;;;;21.30;17.13;;;10.70;99.90;;;;;;6089952;23;20030;-53
2021/10/25 12:17:54;;;;;;;20.40;18.08;;;10.70;99.90;;;;;;6087397;23;20027;-52
2021/10/25 12:20:34;;;;;;;21.80;18.73;;;10.70;99.90;;;;;;6089551;23;20066;-49
2021/10/25 12:23:13;;;;;;;24.73;17.92;;;10.70;99.90;;;;;;6089397;23;20034;-50
2021/10/25 12:25:40;;;;;;;21.90;18.35;;;10.70;99.90;;;;;;6089247;23;20585;-50
2021/10/25 12:28:19;;;;;;;23.63;17.23;;;10.70;99.90;;;;;;6087164;23;20274;-52
2021/10/25 12:30:48;;;;;;;22.23;17.98;;;10.70;99.90;;;;;;6089592;23;20061;-52
2021/10/25 12:33:19;;;;;;;18.08;16.02;;;10.80;99.90;;;;;;6090107;23;20085;-50
2021/10/25 12:35:48;;;;;;;22.08;17.15;;;10.80;99.90;;;;;;6089444;23;20037;-52
2021/10/25 12:38:20;;;;;;;18.85;16.85;;;10.80;99.90;;;;;;6088718;23;20755;-53
2021/10/25 12:40:53;;;;;;;23.60;18.48;;;10.90;99.90;;;;;;6089493;23;20027;-52
2021/10/25 12:43:21;;;;;;;24.98;19.60;;;11.10;99.90;;;;;;6089481;23;20038;-51
2021/10/25 12:46:02;;;;;;;21.30;16.83;;;11.20;99.90;;;;;;6089577;23;20105;-48
2021/10/25 12:48:41;;;;;;;21.73;16.08;;;11.20;99.90;;;;;;6090404;23;20027;-49
2021/10/25 12:51:09;;;;;;;20.88;17.90;;;11.30;99.90;;;;;;6091082;23;20429;-50
2021/10/25 12:53:41;;;;;;;21.52;17.83;;;11.40;99.90;;;;;;6090661;23;20396;-52
2021/10/25 12:56:07;;;;;;;25.50;18.83;;;11.50;99.90;;;;;;6089881;23;20045;-51
2021/10/25 12:58:33;;;;;;;24.58;19.52;;;11.60;99.90;;;;;;6089778;23;20022;-50
2021/10/25 13:01:12;;;;;;;18.58;16.58;;;11.80;99.90;;;;;;6086624;23;20033;-49
2021/10/25 13:03:47;;;;;;;18.55;14.45;;;11.90;99.90;;;;;;6062618;23;20038;-52
2021/10/25 13:06:13;;;;;;;18.90;14.60;;;11.90;99.90;;;;;;6035804;23;20045;-51
2021/10/25 13:08:40;;;;;;;24.23;17.98;;;12.00;99.90;;;;;;6061206;23;20068;-50
2021/10/25 13:11:09;;;;;;;18.20;14.57;;;12.10;99.90;;;;;;6012975;23;20061;-50
2021/10/25 13:13:36;;;;;;;17.73;15.55;;;12.10;99.90;;;;;;6060731;23;20482;-49
2021/10/25 13:16:05;;;;;;;15.45;13.65;;;12.20;99.90;;;;;;6062070;23;20029;-51
2021/10/25 13:18:31;;;;;;;16.52;14.73;;;12.20;99.90;;;;;;6063447;23;20086;-53
2021/10/25 13:20:58;;;;;;;16.73;14.75;;;12.20;99.90;;;;;;6062641;23;20444;-50
2021/10/25 13:23:24;;;;;;;18.33;15.02;;;12.10;99.90;;;;;;6038033;23;20476;-50
2021/10/25 13:25:51;;;;;;;16.20;14.48;;;12.20;99.90;;;;;;6036607;23;20365;-49
2021/10/25 13:28:18;;;;;;;20.90;14.75;;;12.30;99.90;;;;;;6061481;23;20019;-49
2021/10/25 13:30:44;;;;;;;16.73;13.90;;;12.40;99.90;;;;;;6036694;23;20063;-51
2021/10/25 13:33:10;;;;;;;20.63;15.35;;;12.40;99.90;;;;;;6036640;23;20037;-53
2021/10/25 13:35:36;;;;;;;14.85;12.77;;;12.30;99.90;;;;;;6061616;23;20512;-52
2021/10/25 13:38:03;;;;;;;18.98;16.08;;;12.30;99.90;;;;;;6061454;23;20616;-49
2021/10/25 13:40:31;;;;;;;16.67;14.18;;;12.20;99.90;;;;;;6012739;23;20030;-51
2021/10/25 13:43:01;;;;;;;20.48;14.55;;;12.10;99.90;;;;;;6063145;23;20066;-52
2021/10/25 13:45:28;;;;;;;18.52;15.40;;;12.10;99.90;;;;;;6062261;23;20023;-50
2021/10/25 13:47:55;;;;;;;17.27;14.98;;;12.10;99.90;;;;;;6061167;23;20090;-51
2021/10/25 13:50:23;;;;;;;18.92;14.75;;;12.10;99.90;;;;;;6037159;23;20023;-53
2021/10/25 13:52:49;;;;;;;18.90;14.20;;;12.20;99.90;;;;;;6062526;23;20098;-52
2021/10/25 13:55:16;;;;;;;19.55;15.80;;;12.20;99.90;;;;;;6063161;23;20070;-51
2021/10/25 13:57:44;;;;;;;19.75;15.73;;;12.10;99.90;;;;;;6061092;23;20035;-53
2021/10/25 14:00:12;;;;;;;18.52;15.45;;;12.10;99.90;;;;;;6036180;23;20034;-51
2021/10/25 14:02:41;;;;;;;16.83;14.70;;;12.10;99.90;;;;;;6062399;23;20030;-52
2021/10/25 14:05:18;;;;;;;19.27;15.65;;;12.10;99.90;;;;;;6062209;23;20037;-51
2021/10/25 14:07:46;;;;;;;16.90;15.10;;;12.00;99.90;;;;;;6062342;23;20210;-54
2021/10/25 14:10:25;;;;;;;16.52;13.98;;;12.00;99.90;;;;;;6036620;23;20050;-55
2021/10/25 14:12:54;;;;;;;18.88;15.63;;;12.00;99.90;;;;;;6061887;23;20034;-53
2021/10/25 14:17:52;;;;;;;16.33;14.32;;;12.00;99.90;;;;;;6060738;23;20456;-53
2021/10/25 14:20:20;;;;;;;17.08;15.38;;;12.00;99.90;;;;;;6061858;23;20027;-52
2021/10/25 14:22:50;;;;;;;16.73;15.05;;;12.00;99.90;;;;;;6062336;23;20035;-53
2021/10/25 14:25:16;;;;;;;15.77;14.18;;;12.00;99.90;;;;;;6062971;23;20027;-54
2021/10/25 14:27:43;;;;;;;17.17;15.38;;;12.00;99.90;;;;;;6061666;23;20413;-54
2021/10/25 14:30:10;;;;;;;17.40;15.30;;;12.00;99.90;;;;;;6061473;23;20111;-55
2021/10/25 14:32:36;;;;;;;16.55;14.85;;;12.10;99.90;;;;;;6061518;23;20031;-53
2021/10/25 14:35:04;;;;;;;20.02;16.48;;;12.10;99.90;;;;;;6062489;23;20031;-53
2021/10/25 14:37:33;;;;;;;17.88;15.45;;;12.20;99.90;;;;;;6035611;23;20027;-50
2021/10/25 14:40:10;;;;;;;16.67;15.02;;;12.20;99.90;;;;;;6035410;23;20125;-52
2021/10/25 14:42:37;;;;;;;18.15;16.25;;;12.10;99.90;;;;;;6061276;23;20038;-54
2021/10/25 14:45:20;;;;;;;17.70;15.32;;;12.10;99.90;;;;;;6060899;23;20034;-52
2021/10/25 14:58:21;;;;;;;19.88;16.45;;;11.90;99.90;;;;;;6059554;23;20496;-49